Time;durP1;ratioP1;P1;durP2;ratioP2;P2;SDS_P1;SDS_P2;PMS_P1;PMS_P2;Temp;Humidity;BMP_temperature;BMP_pressure;BME280_temperature;BME280_humidity;BME280_pressure;Samples;Min_cycle;Max_cycle;Signal;HPM_P1;HPM_P2
2023/05/01 00:00:06;;;;;;;6.40;4.18;;;;;;;9.77;49.14;101207.53;680261;29;1041;-76
2023/05/01 00:00:27;;;;;;;7.18;3.90;;;;;;;9.79;49.26;101213.72;682765;29;1464;-77
2023/05/01 00:00:48;;;;;;;9.80;4.20;;;;;;;9.77;49.05;101212.75;688215;28;997;-76
2023/05/01 00:01:08;;;;;;;9.77;4.20;;;;;;;9.72;49.33;101206.47;683117;28;1265;-77
2023/05/01 00:01:29;;;;;;;9.70;4.60;;;;;;;9.73;49.28;101203.03;685507;28;1013;-76
2023/05/01 00:01:50;;;;;;;8.00;4.40;;;;;;;9.69;49.44;101199.44;682745;28;875;-76
2023/05/01 00:02:11;;;;;;;7.60;4.20;;;;;;;9.72;49.74;101204.75;682923;29;1151;-76
2023/05/01 00:02:31;;;;;;;6.70;3.90;;;;;;;9.75;49.61;101203.97;682788;29;1065;-76
2023/05/01 00:03:14;;;;;;;6.53;4.00;;;;;;;9.81;49.54;101208.53;682993;29;1028;-76
2023/05/01 00:04:29;;;;;;;6.82;4.22;;;;;;;9.81;49.58;101214.66;686017;28;1073;-77
2023/05/01 00:04:49;;;;;;;10.25;4.47;;;;;;;9.72;49.73;101196.06;688239;28;990;-78
2023/05/01 00:05:10;;;;;;;8.00;4.20;;;;;;;9.73;49.71;101195.22;688481;28;1180;-78
2023/05/01 00:05:30;;;;;;;6.17;4.00;;;;;;;9.76;49.69;101199.66;688092;28;1040;-79
2023/05/01 00:05:59;;;;;;;6.75;4.10;;;;;;;9.78;49.51;101201.50;688206;28;985;-79
2023/05/01 00:06:19;;;;;;;8.20;4.30;;;;;;;9.73;49.64;101190.00;688066;28;1213;-78
2023/05/01 00:06:40;;;;;;;8.25;4.30;;;;;;;9.74;49.68;101194.38;685351;28;1132;-78
2023/05/01 00:07:00;;;;;;;6.07;4.17;;;;;;;9.69;49.91;101189.00;682753;29;1151;-78
2023/05/01 00:07:21;;;;;;;5.15;4.10;;;;;;;9.70;49.31;101189.88;685328;28;1399;-78
2023/05/01 00:07:42;;;;;;;6.32;4.20;;;;;;;9.71;49.50;101189.06;685464;28;1134;-78
2023/05/01 00:08:02;;;;;;;7.57;4.20;;;;;;;9.70;49.42;101187.25;685587;28;1135;-78
2023/05/01 00:08:23;;;;;;;8.32;4.30;;;;;;;9.72;49.37;101191.72;688008;28;1038;-78
2023/05/01 00:08:43;;;;;;;8.82;4.13;;;;;;;9.73;49.69;101190.00;688081;28;1172;-78
2023/05/01 00:09:04;;;;;;;8.13;4.03;;;;;;;9.73;49.60;101192.63;682575;28;1172;-78
2023/05/01 00:09:26;;;;;;;8.20;4.18;;;;;;;9.70;49.48;101190.78;682367;28;1174;-78
2023/05/01 00:09:47;;;;;;;7.97;4.40;;;;;;;9.72;49.67;101188.22;680241;28;1468;-78
2023/05/01 00:10:08;;;;;;;7.78;4.53;;;;;;;9.71;49.88;101195.16;685573;28;1209;-79
2023/05/01 00:10:28;;;;;;;8.60;4.50;;;;;;;9.84;49.59;101188.69;685353;28;1924;-78
2023/05/01 00:10:49;;;;;;;7.97;4.37;;;;;;;9.94;49.12;101192.53;682862;29;1287;-78
2023/05/01 00:11:11;;;;;;;8.40;4.25;;;;;;;9.93;49.05;101179.44;682922;29;968;-78
2023/05/01 00:11:31;;;;;;;6.10;3.90;;;;;;;10.01;49.07;101196.25;682715;29;1049;-78
2023/05/01 00:11:52;;;;;;;5.65;3.90;;;;;;;10.00;48.89;101182.34;680214;29;984;-78
2023/05/01 00:12:13;;;;;;;6.70;4.10;;;;;;;10.05;48.79;101190.31;680309;29;1093;-78
2023/05/01 00:12:33;;;;;;;7.28;4.25;;;;;;;10.03;49.00;101183.28;680689;29;1043;-78
2023/05/01 00:12:54;;;;;;;7.50;4.40;;;;;;;10.05;49.00;101187.72;682900;29;994;-78
2023/05/01 00:13:14;;;;;;;8.50;4.70;;;;;;;10.07;48.80;101193.88;680208;28;1033;-79
2023/05/01 00:13:35;;;;;;;7.88;4.88;;;;;;;10.09;48.93;101189.59;680502;29;998;-78
2023/05/01 00:13:55;;;;;;;7.30;4.70;;;;;;;10.08;48.97;101187.81;685640;28;1136;-78
2023/05/01 00:14:16;;;;;;;5.63;4.20;;;;;;;10.09;48.63;101184.38;682856;29;1189;-78
2023/05/01 00:14:36;;;;;;;5.80;4.20;;;;;;;10.08;48.61;101186.94;685420;28;1152;-78
2023/05/01 00:14:57;;;;;;;6.17;4.60;;;;;;;10.09;48.80;101193.94;688111;28;1406;-78
2023/05/01 00:15:18;;;;;;;6.07;4.53;;;;;;;10.06;48.55;101186.00;682800;29;1124;-78
2023/05/01 00:15:41;;;;;;;5.90;4.38;;;;;;;10.05;48.72;101182.50;680178;29;1131;-78
2023/05/01 00:16:07;;;;;;;5.57;3.90;;;;;;;10.08;48.55;101194.78;682906;29;1132;-78
2023/05/01 00:16:28;;;;;;;5.28;4.18;;;;;;;10.01;48.31;101180.59;680002;29;1151;-77
2023/05/01 00:16:48;;;;;;;5.80;4.18;;;;;;;10.05;48.31;101187.72;680067;29;1115;-78
2023/05/01 00:17:17;;;;;;;5.77;4.10;;;;;;;10.09;48.41;101192.19;677673;29;1322;-77
2023/05/01 00:17:38;;;;;;;5.38;3.90;;;;;;;10.02;48.31;101177.19;677664;29;1005;-79
2023/05/01 00:17:59;;;;;;;5.17;3.90;;;;;;;10.03;48.36;101178.97;683030;29;942;-78
2023/05/01 00:18:19;;;;;;;6.03;3.88;;;;;;;10.02;48.14;101177.19;679947;29;1247;-79
2023/05/01 00:18:40;;;;;;;6.43;3.92;;;;;;;10.02;48.60;101182.41;682676;29;1146;-78
2023/05/01 00:19:02;;;;;;;6.57;4.07;;;;;;;10.05;48.16;101192.94;687016;28;1294;-79
2023/05/01 00:19:22;;;;;;;6.43;4.30;;;;;;;10.06;48.49;101184.28;685346;28;1143;-78
2023/05/01 00:19:45;;;;;;;5.43;4.00;;;;;;;10.04;48.48;101185.94;680236;29;1101;-78
2023/05/01 00:20:07;;;;;;;6.63;4.38;;;;;;;10.05;48.24;101184.22;680244;29;1849;-78
2023/05/01 00:20:28;;;;;;;7.65;4.20;;;;;;;10.04;48.08;101182.44;677341;29;1124;-78
2023/05/01 00:20:49;;;;;;;8.13;4.30;;;;;;;10.13;48.32;101195.81;680114;29;1088;-79
2023/05/01 00:21:09;;;;;;;7.05;4.00;;;;;;;10.02;48.26;101182.41;682964;29;1460;-78
2023/05/01 00:21:30;;;;;;;5.40;3.90;;;;;;;10.04;47.92;101185.94;682788;28;1025;-79
2023/05/01 00:21:51;;;;;;;4.93;3.90;;;;;;;10.08;48.27;101192.16;682864;29;1121;-79
2023/05/01 00:22:12;;;;;;;5.60;3.97;;;;;;;9.99;48.01;101172.75;681186;28;850;-78
2023/05/01 00:22:39;;;;;;;6.73;3.90;;;;;;;9.98;48.22;101172.69;682778;29;1097;-78
2023/05/01 00:22:59;;;;;;;7.88;4.03;;;;;;;10.07;48.23;101185.19;681647;29;855;-78
2023/05/01 00:23:20;;;;;;;8.17;4.40;;;;;;;9.97;48.22;101165.69;680040;29;1157;-78
2023/05/01 00:23:40;;;;;;;7.82;4.47;;;;;;;10.06;48.28;101184.28;680232;29;1092;-78
2023/05/01 00:24:01;;;;;;;7.63;4.47;;;;;;;10.02;48.16;101179.78;678511;29;1132;-78
2023/05/01 00:24:21;;;;;;;6.20;4.10;;;;;;;9.99;48.00;101177.06;679942;29;1123;-78
2023/05/01 00:24:42;;;;;;;6.05;4.18;;;;;;;9.98;48.08;101170.97;682751;29;1476;-78
2023/05/01 00:25:02;;;;;;;5.50;4.10;;;;;;;9.85;48.50;101164.38;680218;29;1102;-79
2023/05/01 00:25:23;;;;;;;5.80;4.30;;;;;;;9.82;48.63;101179.94;677396;29;1375;-78
2023/05/01 00:25:44;;;;;;;5.32;4.30;;;;;;;9.72;48.72;101164.78;677591;29;1178;-78
2023/05/01 00:26:04;;;;;;;5.80;4.30;;;;;;;9.69;48.62;101162.94;677708;29;1069;-78
2023/05/01 00:26:29;;;;;;;6.57;4.18;;;;;;;9.71;48.73;101171.69;677512;29;1111;-79
2023/05/01 00:26:49;;;;;;;6.68;3.97;;;;;;;9.66;48.83;101165.44;680118;29;1006;-78
2023/05/01 00:27:10;;;;;;;6.73;4.17;;;;;;;9.67;48.77;101168.91;681854;28;989;-77
2023/05/01 00:27:30;;;;;;;6.10;4.40;;;;;;;9.65;48.94;101166.25;686199;28;1080;-78
2023/05/01 00:27:51;;;;;;;7.17;4.40;;;;;;;9.67;48.87;101174.13;685461;28;1067;-78
2023/05/01 00:28:12;;;;;;;6.35;4.10;;;;;;;9.68;48.96;101181.13;685607;28;1152;-78
2023/05/01 00:28:32;;;;;;;6.38;3.97;;;;;;;9.62;48.97;101165.22;682478;28;1065;-78
2023/05/01 00:28:53;;;;;;;5.50;4.20;;;;;;;9.58;49.13;101165.13;677507;29;1191;-78
2023/05/01 00:29:16;;;;;;;7.03;4.30;;;;;;;9.63;49.24;101169.66;680111;29;1265;-79
2023/05/01 00:29:36;;;;;;;6.53;4.05;;;;;;;9.60;49.16;101166.06;682828;29;1057;-78
2023/05/01 00:29:57;;;;;;;6.63;4.03;;;;;;;9.59;49.41;101164.28;685405;28;1498;-78
2023/05/01 00:30:17;;;;;;;5.90;4.03;;;;;;;9.62;49.31;101170.44;677392;29;1383;-78
2023/05/01 00:30:39;;;;;;;6.20;4.00;;;;;;;9.56;49.29;101160.69;680092;29;1977;-78
2023/05/01 00:31:00;;;;;;;6.40;3.92;;;;;;;9.56;49.17;101156.38;682903;29;891;-78
2023/05/01 00:31:22;;;;;;;6.17;4.13;;;;;;;9.64;49.32;101168.81;677421;29;1213;-78
2023/05/01 00:31:44;;;;;;;7.30;4.30;;;;;;;9.63;49.26;101161.81;680078;29;1221;-78
2023/05/01 00:32:05;;;;;;;6.13;3.80;;;;;;;9.68;49.00;101170.69;680199;28;1155;-78
2023/05/01 00:32:25;;;;;;;7.50;3.80;;;;;;;9.66;49.10;101167.16;680062;29;1061;-79
2023/05/01 00:32:46;;;;;;;7.35;4.10;;;;;;;9.64;49.14;101166.22;680135;29;1261;-78
2023/05/01 00:33:06;;;;;;;7.63;4.30;;;;;;;9.64;48.81;101158.38;680218;29;1047;-77
2023/05/01 00:33:27;;;;;;;5.72;4.32;;;;;;;9.68;48.90;101162.88;688032;28;1114;-78
2023/05/01 00:33:57;;;;;;;6.60;4.40;;;;;;;9.74;48.89;101165.72;685664;28;867;-78
2023/05/01 00:34:18;;;;;;;7.20;4.40;;;;;;;9.65;48.79;101154.94;680027;29;1161;-78
2023/05/01 00:34:38;;;;;;;6.05;4.10;;;;;;;9.67;48.86;101158.50;680212;29;994;-78
2023/05/01 00:34:59;;;;;;;6.93;4.00;;;;;;;9.69;48.74;101167.25;680191;28;954;-78
2023/05/01 00:35:20;;;;;;;7.00;4.10;;;;;;;9.68;49.11;101162.88;685356;28;1115;-78
2023/05/01 00:35:43;;;;;;;8.15;4.00;;;;;;;9.68;49.24;101160.25;685527;28;1127;-78
2023/05/01 00:36:04;;;;;;;7.55;3.80;;;;;;;9.65;49.21;101154.94;680019;28;1301;-78
2023/05/01 00:36:24;;;;;;;7.00;3.70;;;;;;;9.65;49.03;101154.94;677262;28;1205;-78
2023/05/01 00:36:45;;;;;;;5.30;4.00;;;;;;;9.61;49.06;101151.34;680047;29;994;-78
2023/05/01 00:37:06;;;;;;;5.50;4.20;;;;;;;9.64;48.75;101158.38;680270;29;1109;-78
2023/05/01 00:37:26;;;;;;;6.63;4.40;;;;;;;9.67;49.02;101161.09;682705;29;1096;-78
2023/05/01 00:37:47;;;;;;;6.93;4.20;;;;;;;9.60;48.82;101149.56;682922;29;1096;-78
2023/05/01 00:38:08;;;;;;;6.70;4.30;;;;;;;9.69;49.13;101169.84;685632;28;1060;-78
2023/05/01 00:38:28;;;;;;;5.67;4.30;;;;;;;9.64;48.78;101159.25;682343;29;1056;-78
2023/05/01 00:38:49;;;;;;;6.30;4.50;;;;;;;9.58;48.68;101154.72;680111;29;1217;-78
2023/05/01 00:39:11;;;;;;;6.78;4.40;;;;;;;9.58;48.63;101149.50;680151;28;1083;-78
2023/05/01 00:39:32;;;;;;;7.97;4.50;;;;;;;9.58;48.63;101156.41;677458;28;1039;-78
2023/05/01 00:40:21;;;;;;;7.13;4.20;;;;;;;9.67;48.60;101169.81;677646;29;1166;-78
2023/05/01 00:40:44;;;;;;;7.80;4.00;;;;;;;9.56;48.71;101151.16;685426;28;1218;-79
2023/05/01 00:41:05;;;;;;;7.10;4.10;;;;;;;9.57;48.73;101152.94;685640;28;1127;-78
2023/05/01 00:41:26;;;;;;;8.80;4.20;;;;;;;9.60;48.76;101163.47;683625;28;1056;-78
2023/05/01 00:41:46;;;;;;;7.53;4.17;;;;;;;9.59;48.85;101156.47;680245;28;1053;-78
2023/05/01 00:42:07;;;;;;;7.15;4.25;;;;;;;9.58;48.60;101154.72;677604;29;1162;-78
2023/05/01 00:42:33;;;;;;;7.10;4.20;;;;;;;9.64;48.45;101166.22;679959;29;998;-78
2023/05/01 00:42:54;;;;;;;6.95;4.10;;;;;;;9.59;48.71;101158.22;680297;29;1235;-79
2023/05/01 00:43:15;;;;;;;5.93;3.92;;;;;;;9.59;48.52;101147.78;682828;29;1319;-79
2023/05/01 00:43:36;;;;;;;6.27;3.90;;;;;;;9.55;48.85;101144.19;683860;28;1033;-78
2023/05/01 00:43:57;;;;;;;5.50;3.97;;;;;;;9.56;48.53;101145.06;686429;28;1198;-79
2023/05/01 00:44:17;;;;;;;5.57;4.18;;;;;;;9.61;48.72;101156.53;684289;28;1808;-78
2023/05/01 00:44:38;;;;;;;5.00;4.20;;;;;;;9.55;48.79;101138.06;682371;28;983;-78
2023/05/01 00:44:59;;;;;;;6.95;4.28;;;;;;;9.53;48.80;101144.94;680291;29;847;-78
2023/05/01 00:45:19;;;;;;;7.35;4.20;;;;;;;9.73;48.50;101163.94;682682;29;1159;-78
2023/05/01 00:45:44;;;;;;;8.60;4.47;;;;;;;9.52;48.63;101138.84;685360;28;1041;-78
2023/05/01 00:46:06;;;;;;;6.70;4.20;;;;;;;9.53;48.52;101155.38;682836;29;1138;-78
2023/05/01 00:46:28;;;;;;;6.60;4.20;;;;;;;9.49;49.02;101138.72;682670;29;1011;-78
2023/05/01 00:46:49;;;;;;;6.88;4.32;;;;;;;9.55;48.64;101151.09;680013;29;1140;-78
2023/05/01 00:47:10;;;;;;;5.80;4.33;;;;;;;9.50;48.78;101130.06;685512;28;1023;-78
2023/05/01 00:47:31;;;;;;;5.93;4.47;;;;;;;9.77;48.58;101159.72;680014;29;1154;-78
2023/05/01 00:47:52;;;;;;;5.32;4.30;;;;;;;9.69;48.04;101133.38;682585;28;1254;-79
2023/05/01 00:48:13;;;;;;;5.80;4.40;;;;;;;9.80;48.14;101152.03;682887;29;949;-78
2023/05/01 00:48:34;;;;;;;6.18;4.35;;;;;;;9.81;47.96;101157.28;677461;29;1329;-78
2023/05/01 00:48:58;;;;;;;6.10;4.38;;;;;;;9.78;48.15;101148.47;682857;29;1079;-78
2023/05/01 00:49:19;;;;;;;5.63;4.30;;;;;;;9.80;48.16;101145.09;680045;29;1813;-78
2023/05/01 00:49:45;;;;;;;5.30;4.20;;;;;;;9.81;48.07;101145.97;682814;29;1116;-78
2023/05/01 00:50:06;;;;;;;5.55;4.18;;;;;;;9.81;48.17;101148.56;682880;29;1240;-78
2023/05/01 00:50:27;;;;;;;6.07;4.30;;;;;;;9.76;48.23;101137.97;685209;28;1954;-78
2023/05/01 00:50:48;;;;;;;6.40;4.30;;;;;;;9.73;48.21;101124.84;682836;29;1112;-79
2023/05/01 00:51:11;;;;;;;6.18;4.40;;;;;;;9.83;47.98;101146.94;682828;29;1076;-79
2023/05/01 00:51:32;;;;;;;6.80;4.30;;;;;;;9.81;47.91;101138.16;682543;28;1879;-78
2023/05/01 00:51:53;;;;;;;7.25;4.22;;;;;;;9.77;47.85;101137.16;680128;29;1187;-78
2023/05/01 00:52:14;;;;;;;7.38;4.18;;;;;;;9.74;48.12;101129.22;680005;29;1168;-78
2023/05/01 00:52:34;;;;;;;7.38;4.30;;;;;;;9.78;48.34;101141.56;677422;28;1272;-78
2023/05/01 00:52:55;;;;;;;6.20;4.20;;;;;;;9.76;48.21;101137.09;685321;28;1039;-79
2023/05/01 00:53:17;;;;;;;6.15;4.10;;;;;;;9.71;48.21;101132.59;682671;29;996;-79
2023/05/01 00:53:42;;;;;;;6.00;3.95;;;;;;;9.72;48.24;101131.75;682853;28;1046;-78
2023/05/01 00:54:04;;;;;;;6.60;4.22;;;;;;;9.69;48.43;101131.66;682883;28;1017;-78
2023/05/01 00:54:27;;;;;;;6.55;4.30;;;;;;;9.79;48.20;101145.94;682358;29;1343;-78
2023/05/01 00:54:50;;;;;;;6.53;4.55;;;;;;;9.69;48.23;101130.75;682786;29;1116;-78
2023/05/01 00:55:12;;;;;;;7.00;4.53;;;;;;;9.69;48.66;101130.75;682902;29;1206;-78
2023/05/01 00:55:34;;;;;;;7.00;4.65;;;;;;;9.71;48.80;101134.34;685265;28;1756;-78
2023/05/01 00:56:42;;;;;;;7.30;4.50;;;;;;;9.76;48.54;101151.00;682920;28;1076;-79
2023/05/01 00:57:07;;;;;;;5.60;4.20;;;;;;;9.74;48.20;101142.25;680152;29;1017;-78
2023/05/01 00:57:27;;;;;;;5.72;4.03;;;;;;;9.67;48.14;101132.44;682813;29;1174;-78
2023/05/01 00:57:49;;;;;;;5.90;4.03;;;;;;;9.63;48.26;101128.81;682837;29;1025;-78
2023/05/01 00:58:11;;;;;;;5.50;4.10;;;;;;;9.63;48.20;101125.34;682800;28;1284;-79
2023/05/01 00:58:31;;;;;;;7.10;4.30;;;;;;;9.60;48.50;101126.13;685436;28;1064;-78
2023/05/01 00:58:52;;;;;;;7.17;4.37;;;;;;;9.60;48.61;101134.78;675017;29;1220;-78
2023/05/01 00:59:13;;;;;;;9.75;4.72;;;;;;;9.62;48.48;101133.97;680143;29;969;-78
2023/05/01 00:59:34;;;;;;;8.80;4.60;;;;;;;9.57;48.54;101119.06;680172;29;1089;-78
2023/05/01 00:59:54;;;;;;;9.63;4.95;;;;;;;9.57;48.85;101116.47;680208;29;1013;-78
2023/05/01 01:00:16;;;;;;;7.50;4.70;;;;;;;9.58;48.64;101132.97;685391;28;1098;-78
2023/05/01 01:00:37;;;;;;;6.60;4.53;;;;;;;9.48;48.71;101136.06;680071;29;1087;-79
2023/05/01 01:00:58;;;;;;;6.45;4.20;;;;;;;9.38;49.23;101132.19;683761;28;1685;-78
2023/05/01 01:01:20;;;;;;;7.30;4.40;;;;;;;9.35;49.21;101124.28;685393;28;1123;-78
2023/05/01 01:01:41;;;;;;;7.43;4.57;;;;;;;9.31;49.53;101123.25;685442;28;1080;-78
2023/05/01 01:02:02;;;;;;;6.80;4.90;;;;;;;9.26;49.36;101115.28;682922;29;843;-78
2023/05/01 01:02:23;;;;;;;6.30;4.60;;;;;;;9.30;49.07;101127.59;682817;29;1001;-79
2023/05/01 01:02:45;;;;;;;5.90;4.67;;;;;;;9.25;49.21;101123.03;680096;29;1097;-78
2023/05/01 01:03:06;;;;;;;6.05;4.50;;;;;;;9.27;49.61;101122.25;680244;29;1140;-78
2023/05/01 01:03:27;;;;;;;6.30;4.45;;;;;;;9.35;49.37;101145.13;683196;28;1210;-78
2023/05/01 01:03:51;;;;;;;6.80;4.55;;;;;;;9.25;49.14;101123.03;682833;28;1020;-79
2023/05/01 01:04:12;;;;;;;6.40;4.35;;;;;;;9.22;49.14;101123.78;682859;28;1126;-78
2023/05/01 01:04:33;;;;;;;6.53;4.40;;;;;;;9.23;49.64;101125.59;682625;29;1228;-78
2023/05/01 01:04:54;;;;;;;6.55;4.20;;;;;;;9.22;49.50;101121.19;677562;29;1097;-78
2023/05/01 01:05:15;;;;;;;6.22;4.32;;;;;;;9.22;49.46;101126.38;680159;29;1085;-78
2023/05/01 01:05:41;;;;;;;6.10;4.30;;;;;;;9.16;49.26;101118.34;682670;29;1151;-78
2023/05/01 01:06:12;;;;;;;7.53;4.60;;;;;;;9.18;49.40;101119.31;680117;29;1087;-78
2023/05/01 01:06:39;;;;;;;8.60;4.50;;;;;;;9.26;49.02;101136.13;679970;29;983;-78
2023/05/01 01:07:20;;;;;;;8.93;4.50;;;;;;;9.25;49.35;101134.34;679909;29;796;-78
2023/05/01 01:07:50;;;;;;;8.40;4.80;;;;;;;9.16;49.13;101116.63;677322;29;1034;-78
2023/05/01 01:08:27;;;;;;;6.63;4.45;;;;;;;9.22;48.97;101129.00;680300;29;978;-78
2023/05/01 01:08:58;;;;;;;9.85;4.88;;;;;;;9.23;49.43;101132.50;683893;28;1240;-78
2023/05/01 01:09:37;;;;;;;9.07;4.93;;;;;;;9.18;49.22;101116.69;685081;28;1083;-78
2023/05/01 01:10:17;;;;;;;8.30;4.60;;;;;;;9.09;49.42;101109.41;685269;28;1113;-78
2023/05/01 01:10:53;;;;;;;5.32;4.40;;;;;;;9.14;49.06;101115.69;683774;28;1965;-78
2023/05/01 01:11:26;;;;;;;6.45;4.18;;;;;;;9.18;48.96;101117.59;680024;29;995;-78
2023/05/01 01:12:07;;;;;;;6.28;3.95;;;;;;;9.12;48.81;101113.84;680195;29;988;-78
2023/05/01 01:12:42;;;;;;;5.50;4.10;;;;;;;9.13;49.09;101115.63;681073;29;1131;-78
2023/05/01 01:13:13;;;;;;;6.70;4.50;;;;;;;9.14;48.95;101114.78;684738;28;1103;-78
2023/05/01 01:13:45;;;;;;;7.60;4.80;;;;;;;9.10;49.50;101102.50;683304;28;2106;-78
2023/05/01 01:14:18;;;;;;;5.40;4.30;;;;;;;9.08;49.40;101101.56;680175;28;1207;-79
2023/05/01 01:14:47;;;;;;;5.50;4.40;;;;;;;9.02;49.31;101095.25;680041;29;1131;-78
2023/05/01 01:15:17;;;;;;;6.32;4.45;;;;;;;9.14;49.61;101120.00;680269;29;1181;-78
2023/05/01 01:16:02;;;;;;;7.45;4.55;;;;;;;9.07;49.40;101108.47;682662;28;1289;-79
2023/05/01 01:16:38;;;;;;;8.75;5.20;;;;;;;9.12;49.59;101122.56;682770;29;1080;-78
2023/05/01 01:17:15;;;;;;;10.38;4.53;;;;;;;9.11;49.40;101109.47;682553;28;880;-78
2023/05/01 01:17:58;;;;;;;9.82;4.50;;;;;;;9.11;49.46;101117.28;682628;28;1080;-78
2023/05/01 01:18:26;;;;;;;7.65;4.30;;;;;;;9.02;49.64;101105.69;684428;28;1079;-78
2023/05/01 01:18:54;;;;;;;6.40;4.13;;;;;;;8.98;49.74;101090.75;682658;28;1266;-78
2023/05/01 01:19:51;;;;;;;7.38;4.38;;;;;;;9.02;49.57;101110.88;680017;29;1095;-79
2023/05/01 01:20:15;;;;;;;7.38;4.15;;;;;;;9.08;49.48;101114.56;679142;29;1104;-78
2023/05/01 01:20:49;;;;;;;8.60;4.00;;;;;;;9.08;49.38;101119.78;679945;29;1331;-78
2023/05/01 01:21:37;;;;;;;7.85;4.40;;;;;;;8.97;49.61;101102.00;682769;29;999;-77
2023/05/01 01:22:06;;;;;;;6.65;4.30;;;;;;;9.01;49.72;101108.22;677434;29;895;-78
2023/05/01 01:22:28;;;;;;;6.57;4.15;;;;;;;8.90;49.44;101089.56;678702;29;1049;-78
2023/05/01 01:23:21;;;;;;;6.70;4.30;;;;;;;8.96;49.52;101096.75;680222;29;968;-78
2023/05/01 01:24:02;;;;;;;6.82;4.20;;;;;;;8.90;49.90;101094.75;677856;29;1126;-78
2023/05/01 01:24:53;;;;;;;5.70;4.22;;;;;;;8.85;49.62;101085.91;679533;29;1073;-78
2023/05/01 01:25:13;;;;;;;5.43;4.15;;;;;;;8.99;49.55;101110.78;680144;28;1090;-78
2023/05/01 01:26:03;;;;;;;6.93;4.20;;;;;;;8.99;49.45;101115.06;677410;29;1165;-78
2023/05/01 01:26:33;;;;;;;10.95;4.65;;;;;;;8.87;49.78;101092.03;679857;29;1098;-78
2023/05/01 01:27:09;;;;;;;10.15;4.75;;;;;;;8.99;49.71;101118.59;679831;29;1077;-78
2023/05/01 01:27:42;;;;;;;8.25;4.38;;;;;;;8.99;49.80;101110.78;684525;28;1344;-78
2023/05/01 01:28:30;;;;;;;7.15;4.07;;;;;;;9.00;49.51;101112.53;685422;28;1047;-78
2023/05/01 01:29:12;;;;;;;5.78;4.20;;;;;;;8.96;50.03;101109.75;685416;28;1052;-79
2023/05/01 01:30:03;;;;;;;6.82;4.40;;;;;;;8.97;49.49;101106.31;685228;28;1078;-78
2023/05/01 01:30:50;;;;;;;6.30;3.88;;;;;;;8.98;49.33;101113.31;682573;28;1025;-78
2023/05/01 01:31:11;;;;;;;8.88;4.10;;;;;;;8.97;49.84;101117.59;679903;29;1208;-78
2023/05/01 01:31:38;;;;;;;6.87;4.20;;;;;;;8.90;49.51;101105.16;679842;29;984;-78
2023/05/01 01:32:17;;;;;;;6.78;4.28;;;;;;;8.95;49.84;101106.25;680002;29;980;-78
2023/05/01 01:32:43;;;;;;;7.00;4.22;;;;;;;8.96;49.42;101113.22;680074;29;1015;-79
2023/05/01 01:33:34;;;;;;;6.75;4.05;;;;;;;8.85;49.85;101091.09;682721;29;1280;-78
2023/05/01 01:34:15;;;;;;;6.20;4.13;;;;;;;8.92;49.35;101103.53;682733;29;1021;-77
2023/05/01 01:34:50;;;;;;;5.55;4.20;;;;;;;8.80;49.67;101083.13;682123;29;1148;-78
2023/05/01 01:35:19;;;;;;;5.35;3.83;;;;;;;8.85;49.85;101097.19;685484;28;989;-78
2023/05/01 01:35:45;;;;;;;6.00;4.05;;;;;;;8.83;49.80;101090.16;685387;28;1054;-78
2023/05/01 01:36:14;;;;;;;5.60;4.30;;;;;;;8.81;49.43;101094.41;685659;28;1115;-78
2023/05/01 01:36:45;;;;;;;7.47;4.43;;;;;;;8.81;49.44;101092.69;684270;28;1980;-78
2023/05/01 01:37:28;;;;;;;7.13;4.22;;;;;;;8.86;49.97;101104.16;682890;29;1002;-78
2023/05/01 01:38:02;;;;;;;5.00;4.20;;;;;;;8.81;49.41;101083.97;682702;29;1044;-77
2023/05/01 01:38:32;;;;;;;7.47;4.60;;;;;;;8.86;49.70;101092.88;682730;28;1021;-77
2023/05/01 01:39:10;;;;;;;7.45;4.60;;;;;;;8.88;49.58;101106.84;683400;28;1029;-78
2023/05/01 01:39:40;;;;;;;5.07;4.05;;;;;;;8.82;49.18;101093.56;682548;28;1092;-78
2023/05/01 01:40:10;;;;;;;5.15;4.00;;;;;;;8.90;49.26;101108.69;682826;29;957;-78
2023/05/01 01:40:38;;;;;;;6.30;4.20;;;;;;;8.78;49.62;101084.75;682568;28;1073;-79
2023/05/01 01:41:08;;;;;;;7.25;4.60;;;;;;;8.79;49.33;101088.25;680238;29;899;-79
2023/05/01 01:41:32;;;;;;;6.95;4.40;;;;;;;8.86;49.53;101098.94;682155;28;1072;-78
2023/05/01 01:41:55;;;;;;;6.63;4.13;;;;;;;8.80;49.52;101090.03;677627;29;1236;-78
2023/05/01 01:42:20;;;;;;;7.20;4.50;;;;;;;8.79;49.72;101085.66;675453;29;1111;-78
2023/05/01 01:42:47;;;;;;;7.20;4.50;;;;;;;8.79;49.58;101086.56;677558;29;1897;-78
2023/05/01 01:43:12;;;;;;;7.43;4.20;;;;;;;8.75;49.66;101082.94;677516;29;1156;-79
2023/05/01 01:43:38;;;;;;;7.30;4.15;;;;;;;8.75;49.79;101092.44;677289;29;994;-78
2023/05/01 01:44:04;;;;;;;5.53;3.97;;;;;;;8.71;49.53;101077.50;674908;29;1009;-78
2023/05/01 01:44:33;;;;;;;4.82;4.00;;;;;;;8.77;49.62;101089.06;674795;29;1039;-78
2023/05/01 01:44:56;;;;;;;5.00;3.80;;;;;;;8.80;49.93;101090.03;674942;29;1059;-78
2023/05/01 01:45:35;;;;;;;5.65;3.80;;;;;;;8.72;49.39;101082.78;674679;29;1289;-78
2023/05/01 01:46:04;;;;;;;7.15;4.28;;;;;;;8.78;49.71;101089.94;677397;29;1082;-78
2023/05/01 01:46:26;;;;;;;7.43;4.40;;;;;;;8.72;49.71;101085.38;674644;29;1125;-78
2023/05/01 01:46:49;;;;;;;7.20;4.30;;;;;;;8.71;49.83;101083.63;674719;29;1259;-78
2023/05/01 01:47:11;;;;;;;8.40;4.30;;;;;;;8.74;49.86;101083.72;675003;29;1006;-78
2023/05/01 01:47:33;;;;;;;8.18;4.20;;;;;;;8.72;50.00;101084.53;677402;29;1112;-78
2023/05/01 01:47:56;;;;;;;8.15;4.20;;;;;;;8.69;49.66;101080.06;680064;29;1238;-78
2023/05/01 01:48:22;;;;;;;6.30;3.97;;;;;;;8.71;49.58;101083.63;680136;29;1156;-78
2023/05/01 01:48:46;;;;;;;4.85;3.92;;;;;;;8.66;49.71;101073.84;677396;29;1146;-78
2023/05/01 01:49:14;;;;;;;5.13;4.20;;;;;;;8.71;49.86;101088.81;674921;29;1951;-78
2023/05/01 01:49:39;;;;;;;6.13;4.68;;;;;;;8.60;49.81;101082.28;677459;29;968;-77
2023/05/01 01:50:04;;;;;;;6.15;4.40;;;;;;;8.58;50.06;101073.50;680117;29;892;-78
2023/05/01 01:50:27;;;;;;;6.63;4.18;;;;;;;8.62;50.12;101089.31;677334;29;1149;-78
2023/05/01 01:50:48;;;;;;;6.93;4.15;;;;;;;8.59;49.92;101080.47;677369;29;1948;-78
2023/05/01 01:51:14;;;;;;;6.53;4.28;;;;;;;8.58;50.31;101081.28;680105;29;1036;-78
2023/05/01 01:51:38;;;;;;;6.15;4.35;;;;;;;8.54;50.20;101069.00;677292;29;1040;-78
2023/05/01 01:52:01;;;;;;;5.13;4.10;;;;;;;8.54;50.49;101077.69;677412;29;1832;-79
2023/05/01 01:52:25;;;;;;;5.53;4.10;;;;;;;8.58;50.39;101083.91;680082;29;995;-78
2023/05/01 01:52:48;;;;;;;5.70;4.35;;;;;;;8.54;50.08;101069.00;680086;29;1088;-78
2023/05/01 01:53:11;;;;;;;6.47;4.70;;;;;;;8.65;50.13;101083.34;680200;29;1009;-78
2023/05/01 01:53:36;;;;;;;6.40;4.63;;;;;;;8.57;50.50;101076.91;677235;29;1939;-78
2023/05/01 01:53:59;;;;;;;5.75;4.65;;;;;;;8.57;50.13;101079.53;679873;29;1222;-78
2023/05/01 01:54:36;;;;;;;4.60;4.10;;;;;;;8.52;50.27;101062.84;682236;28;1191;-78
2023/05/01 01:55:08;;;;;;;5.10;3.88;;;;;;;8.61;50.20;101086.66;677477;29;1092;-79
2023/05/01 01:55:31;;;;;;;6.03;4.30;;;;;;;8.54;50.10;101069.88;677293;29;1002;-78
2023/05/01 01:55:54;;;;;;;5.22;4.18;;;;;;;8.53;50.35;101067.22;680118;29;1013;-78
2023/05/01 01:56:17;;;;;;;5.03;4.00;;;;;;;8.55;49.89;101065.56;677546;29;1022;-78
2023/05/01 01:56:40;;;;;;;4.82;3.90;;;;;;;8.62;50.15;101085.84;677355;29;1355;-78
2023/05/01 01:57:02;;;;;;;5.50;4.20;;;;;;;8.57;50.21;101071.72;682575;29;909;-78
2023/05/01 01:57:24;;;;;;;5.75;4.30;;;;;;;8.54;50.13;101072.47;682667;28;1007;-78
2023/05/01 01:57:46;;;;;;;5.53;4.15;;;;;;;8.50;50.58;101063.66;682834;28;1137;-78
2023/05/01 01:58:09;;;;;;;5.78;4.15;;;;;;;8.56;49.89;101068.25;682838;28;1018;-78
2023/05/01 01:58:30;;;;;;;7.54;4.40;;;;;;;8.50;49.97;101063.66;679886;29;1412;-78
2023/05/01 01:58:52;;;;;;;7.35;4.35;;;;;;;8.58;50.20;101073.50;682641;28;1362;-78
2023/05/01 01:59:14;;;;;;;6.60;4.20;;;;;;;8.54;50.26;101069.88;682808;28;1241;-78
2023/05/01 01:59:35;;;;;;;5.72;4.05;;;;;;;8.63;49.87;101082.41;679929;29;1085;-78
2023/05/01 01:59:57;;;;;;;5.90;3.90;;;;;;;8.53;50.43;101067.22;677585;29;1090;-78
2023/05/01 02:00:19;;;;;;;7.28;4.20;;;;;;;8.55;50.24;101068.19;677725;29;1370;-78
2023/05/01 02:00:44;;;;;;;6.75;4.40;;;;;;;8.63;50.28;101079.81;677919;29;1101;-78
2023/05/01 02:01:06;;;;;;;7.75;4.70;;;;;;;8.51;50.24;101059.34;680711;29;1032;-78
2023/05/01 02:01:28;;;;;;;8.35;4.43;;;;;;;8.58;50.57;101071.78;683137;28;1151;-78
2023/05/01 02:01:50;;;;;;;8.70;4.57;;;;;;;8.63;50.50;101069.41;677787;29;1145;-78
2023/05/01 02:02:14;;;;;;;7.43;4.40;;;;;;;8.51;50.44;101061.97;680703;29;1104;-79